Time;durP1;ratioP1;P1;durP2;ratioP2;P2;SDS_P1;SDS_P2;PMS_P1;PMS_P2;Temp;Humidity;BMP_temperature;BMP_pressure;BME280_temperature;BME280_humidity;BME280_pressure;Samples;Min_cycle;Max_cycle;Signal;HPM_P1;HPM_P2
2022/05/27 00:01:41;;;;;;;19.73;4.28;;;;;;;;;;4981690;28;20022;-89
2022/05/27 00:04:07;;;;;;;26.25;4.68;;;;;;;;;;4969668;28;20034;-89
2022/05/27 00:06:34;;;;;;;26.17;4.68;;;;;;;;;;4973922;28;20038;-89
2022/05/27 00:09:00;;;;;;;33.17;5.00;;;;;;;;;;4979396;28;20474;-88
2022/05/27 00:11:26;;;;;;;22.20;4.57;;;;;;;;;;4984792;28;20094;-89
2022/05/27 00:13:52;;;;;;;21.25;4.35;;;;;;;;;;4967259;28;20034;-89
2022/05/27 00:16:19;;;;;;;26.38;4.95;;;;;;;;;;4966990;28;20118;-89
2022/05/27 00:18:45;;;;;;;26.85;5.32;;;;;;;;;;4970937;28;20354;-90
2022/05/27 00:21:11;;;;;;;18.45;3.85;;;;;;;;;;4966909;28;20032;-89
2022/05/27 00:23:38;;;;;;;31.52;4.63;;;;;;;;;;4950645;28;20058;-89
2022/05/27 00:26:04;;;;;;;25.48;3.80;;;;;;;;;;4951246;28;20495;-90
2022/05/27 00:28:30;;;;;;;28.38;3.95;;;;;;;;;;4964329;28;20108;-89
2022/05/27 00:30:56;;;;;;;22.05;4.40;;;;;;;;;;4969383;28;20059;-89
2022/05/27 00:33:23;;;;;;;27.17;4.18;;;;;;;;;;4962111;28;20117;-90
2022/05/27 00:35:50;;;;;;;26.40;4.57;;;;;;;;;;4967536;28;20034;-89
2022/05/27 00:38:16;;;;;;;18.98;5.05;;;;;;;;;;4964252;28;20122;-87
2022/05/27 00:40:44;;;;;;;22.65;4.28;;;;;;;;;;4949527;28;20053;-89
2022/05/27 00:43:10;;;;;;;23.67;4.65;;;;;;;;;;4967487;28;20066;-89
2022/05/27 00:45:42;;;;;;;16.20;4.15;;;;;;;;;;4968093;28;20065;-89
2022/05/27 00:48:12;;;;;;;17.60;4.07;;;;;;;;;;4970142;28;20394;-89
2022/05/27 00:50:40;;;;;;;23.70;4.93;;;;;;;;;;4945632;28;20069;-89
2022/05/27 00:53:07;;;;;;;23.50;4.15;;;;;;;;;;4966264;28;20134;-90
2022/05/27 00:55:35;;;;;;;19.08;4.05;;;;;;;;;;4949544;28;20490;-90
2022/05/27 00:58:12;;;;;;;27.42;3.75;;;;;;;;;;4965889;28;20030;-87
2022/05/27 01:00:39;;;;;;;24.42;3.88;;;;;;;;;;4947861;28;20065;-89
2022/05/27 01:03:07;;;;;;;17.20;3.42;;;;;;;;;;4967505;28;20089;-89
2022/05/27 01:05:39;;;;;;;19.73;4.47;;;;;;;;;;4946645;28;20054;-89
2022/05/27 01:08:07;;;;;;;32.67;4.55;;;;;;;;;;4966214;28;20030;-89
2022/05/27 01:10:39;;;;;;;21.65;4.80;;;;;;;;;;4953427;28;20459;-88
2022/05/27 01:13:09;;;;;;;20.55;4.10;;;;;;;;;;4967439;28;20125;-89
2022/05/27 01:15:38;;;;;;;21.00;3.75;;;;;;;;;;4965700;28;20076;-89
2022/05/27 01:18:04;;;;;;;23.45;4.03;;;;;;;;;;4985162;28;20569;-89
2022/05/27 01:20:40;;;;;;;21.20;3.60;;;;;;;;;;4969629;28;20130;-89
2022/05/27 01:23:06;;;;;;;;;;;;;;;;;;4987748;28;20046;-88
2022/05/27 01:25:32;;;;;;;25.40;3.90;;;;;;;;;;4971035;28;19914;-88
2022/05/27 01:27:58;;;;;;;15.60;3.65;;;;;;;;;;4970009;28;20064;-88
2022/05/27 01:30:33;;;;;;;18.90;3.65;;;;;;;;;;4966743;28;20359;-88
2022/05/27 01:33:14;;;;;;;13.77;3.97;;;;;;;;;;4965603;28;20034;-89
2022/05/27 01:35:41;;;;;;;17.67;3.88;;;;;;;;;;4968183;28;20707;-89
2022/05/27 01:38:12;;;;;;;20.85;2.97;;;;;;;;;;4964911;28;20058;-89
2022/05/27 01:40:57;;;;;;;9.65;3.25;;;;;;;;;;4964230;28;20079;-90
2022/05/27 01:43:49;;;;;;;17.52;3.65;;;;;;;;;;4982200;28;20050;-89
2022/05/27 01:46:17;;;;;;;17.58;3.58;;;;;;;;;;4964173;28;20037;-89
2022/05/27 01:49:22;;;;;;;19.00;4.95;;;;;;;;;;4966702;28;20069;-90
2022/05/27 01:51:54;;;;;;;25.60;4.13;;;;;;;;;;4924528;29;20031;-88
2022/05/27 01:54:24;;;;;;;17.80;3.33;;;;;;;;;;4948613;28;20086;-89
2022/05/27 01:56:52;;;;;;;15.75;3.35;;;;;;;;;;4951637;28;20070;-89
2022/05/27 01:59:28;;;;;;;26.02;4.15;;;;;;;;;;4971141;28;20054;-89
2022/05/27 02:02:00;;;;;;;19.85;3.78;;;;;;;;;;4983796;28;20029;-89
2022/05/27 02:04:41;;;;;;;20.15;3.08;;;;;;;;;;4981821;28;20606;-87
2022/05/27 02:07:14;;;;;;;17.05;3.17;;;;;;;;;;4987273;28;20069;-89
2022/05/27 02:09:48;;;;;;;10.90;3.33;;;;;;;;;;4972897;28;20487;-89
2022/05/27 02:12:17;;;;;;;10.82;2.70;;;;;;;;;;4974416;28;20494;-87
2022/05/27 02:14:49;;;;;;;10.65;2.75;;;;;;;;;;4984038;28;20026;-88
2022/05/27 02:17:35;;;;;;;23.08;3.13;;;;;;;;;;4986533;28;20046;-88
2022/05/27 02:20:04;;;;;;;22.77;2.65;;;;;;;;;;4975207;28;20059;-89
2022/05/27 02:22:33;;;;;;;20.77;2.85;;;;;;;;;;4973524;28;20030;-88
2022/05/27 02:25:00;;;;;;;11.88;2.95;;;;;;;;;;4987610;28;20019;-89
2022/05/27 02:27:36;;;;;;;21.02;4.38;;;;;;;;;;4971418;28;20026;-90
2022/05/27 02:30:06;;;;;;;18.60;3.33;;;;;;;;;;4968606;28;20536;-89
2022/05/27 02:32:35;;;;;;;9.20;2.83;;;;;;;;;;4967957;28;20039;-88
2022/05/27 02:35:09;;;;;;;16.02;3.53;;;;;;;;;;4968837;28;20060;-89
2022/05/27 02:37:41;;;;;;;18.10;2.95;;;;;;;;;;4966682;28;20478;-90
2022/05/27 02:40:10;;;;;;;14.15;4.35;;;;;;;;;;4971305;28;20026;-89
2022/05/27 02:42:52;;;;;;;20.40;3.38;;;;;;;;;;4973405;28;20037;-89
2022/05/27 02:45:21;;;;;;;21.08;3.22;;;;;;;;;;4985936;28;20034;-88
2022/05/27 02:47:52;;;;;;;22.67;3.60;;;;;;;;;;4963903;28;20037;-89
2022/05/27 02:50:26;;;;;;;15.73;2.67;;;;;;;;;;4974239;28;20026;-88
2022/05/27 02:52:58;;;;;;;17.02;2.97;;;;;;;;;;4968573;28;20264;-88
2022/05/27 02:55:50;;;;;;;32.83;3.83;;;;;;;;;;4992117;28;20047;-89
2022/05/27 02:58:16;;;;;;;17.65;3.35;;;;;;;;;;4971330;28;20513;-88
2022/05/27 03:00:44;;;;;;;21.92;4.25;;;;;;;;;;4973736;28;20473;-89
2022/05/27 03:03:10;;;;;;;17.42;2.70;;;;;;;;;;4972053;28;20033;-88
2022/05/27 03:05:48;;;;;;;13.70;3.88;;;;;;;;;;4969845;28;20035;-88
2022/05/27 03:08:14;;;;;;;15.57;2.58;;;;;;;;;;4969882;28;20085;-90
2022/05/27 03:10:53;;;;;;;16.00;2.78;;;;;;;;;;4970720;28;20034;-89
2022/05/27 03:13:38;;;;;;;15.98;3.25;;;;;;;;;;4973732;28;20236;-89
2022/05/27 03:16:17;;;;;;;23.13;3.30;;;;;;;;;;4968739;28;20059;-87
2022/05/27 03:18:43;;;;;;;15.63;3.33;;;;;;;;;;4979560;28;20045;-89
2022/05/27 03:21:22;;;;;;;15.15;3.55;;;;;;;;;;4968168;28;20030;-89
2022/05/27 03:23:52;;;;;;;17.95;3.00;;;;;;;;;;4951718;28;20059;-88
2022/05/27 03:26:18;;;;;;;19.98;3.25;;;;;;;;;;4965684;28;20557;-88
2022/05/27 03:29:04;;;;;;;18.88;2.97;;;;;;;;;;4954538;28;20068;-89
2022/05/27 03:31:40;;;;;;;14.55;2.53;;;;;;;;;;4947418;28;20429;-89
2022/05/27 03:34:10;;;;;;;12.98;3.20;;;;;;;;;;4946162;28;20806;-89
2022/05/27 03:36:44;;;;;;;12.63;2.70;;;;;;;;;;4955311;28;20448;-86
2022/05/27 03:39:30;;;;;;;12.05;2.65;;;;;;;;;;4953476;28;20127;-90
2022/05/27 03:41:59;;;;;;;15.45;3.38;;;;;;;;;;4950958;28;20413;-89
2022/05/27 03:44:27;;;;;;;27.48;3.42;;;;;;;;;;4954602;28;20046;-89
2022/05/27 03:46:54;;;;;;;15.02;2.88;;;;;;;;;;4949932;28;20035;-89
2022/05/27 03:49:20;;;;;;;11.68;2.33;;;;;;;;;;4955434;28;20126;-90
2022/05/27 03:51:52;;;;;;;24.50;4.00;;;;;;;;;;4950429;28;20042;-87
2022/05/27 03:54:20;;;;;;;16.13;3.58;;;;;;;;;;4950240;28;20141;-89
2022/05/27 03:56:47;;;;;;;14.93;2.90;;;;;;;;;;4955295;28;20049;-88
2022/05/27 03:59:14;;;;;;;13.10;3.17;;;;;;;;;;4952361;28;20442;-90
2022/05/27 04:01:41;;;;;;;11.73;2.83;;;;;;;;;;4945802;28;20050;-89
2022/05/27 04:04:09;;;;;;;20.33;4.55;;;;;;;;;;4954099;28;20039;-89
2022/05/27 04:06:35;;;;;;;10.38;2.67;;;;;;;;;;4952363;28;20113;-89
2022/05/27 04:09:01;;;;;;;14.75;3.38;;;;;;;;;;4957740;28;20031;-88
2022/05/27 04:11:28;;;;;;;11.82;2.65;;;;;;;;;;4955658;28;20042;-88
2022/05/27 04:13:55;;;;;;;14.32;2.47;;;;;;;;;;4952084;28;20173;-89
2022/05/27 04:16:21;;;;;;;19.48;3.10;;;;;;;;;;4967049;28;20295;-89
2022/05/27 04:18:47;;;;;;;19.25;2.88;;;;;;;;;;4969573;28;20125;-89
2022/05/27 04:21:13;;;;;;;13.95;2.75;;;;;;;;;;4979480;28;20042;-89
2022/05/27 04:23:39;;;;;;;14.35;3.10;;;;;;;;;;4969823;28;20030;-89
2022/05/27 04:26:05;;;;;;;13.07;2.95;;;;;;;;;;4964645;28;20050;-89
2022/05/27 04:28:33;;;;;;;13.48;2.08;;;;;;;;;;4968999;28;20390;-89
2022/05/27 04:31:00;;;;;;;17.83;3.42;;;;;;;;;;4970240;28;20030;-89
2022/05/27 04:33:27;;;;;;;17.17;3.35;;;;;;;;;;4970487;28;20089;-90
2022/05/27 04:35:54;;;;;;;16.85;3.03;;;;;;;;;;4968131;28;20045;-90
2022/05/27 04:38:21;;;;;;;20.30;2.88;;;;;;;;;;4978752;28;20269;-89
2022/05/27 04:40:47;;;;;;;20.73;2.90;;;;;;;;;;4966833;28;20113;-89
2022/05/27 04:43:13;;;;;;;15.15;3.08;;;;;;;;;;4967599;28;20030;-89
2022/05/27 04:45:40;;;;;;;20.05;2.88;;;;;;;;;;4962762;28;20538;-89
2022/05/27 04:48:06;;;;;;;11.18;2.53;;;;;;;;;;4964458;28;20031;-87
2022/05/27 04:50:32;;;;;;;23.95;3.40;;;;;;;;;;4979394;28;20532;-90
2022/05/27 04:52:59;;;;;;;13.82;4.50;;;;;;;;;;4986216;28;20542;-89
2022/05/27 04:55:25;;;;;;;14.32;2.70;;;;;;;;;;4982454;28;20026;-90
2022/05/27 04:57:53;;;;;;;8.65;2.55;;;;;;;;;;4962547;28;20045;-90
2022/05/27 05:00:24;;;;;;;12.60;2.78;;;;;;;;;;4966366;28;20038;-90
2022/05/27 05:02:50;;;;;;;18.52;3.17;;;;;;;;;;4964153;28;20577;-90
2022/05/27 05:05:18;;;;;;;14.32;2.88;;;;;;;;;;4963537;28;20587;-89
2022/05/27 05:07:45;;;;;;;13.77;3.05;;;;;;;;;;4967427;28;20035;-90
2022/05/27 05:10:13;;;;;;;14.43;2.95;;;;;;;;;;4969466;28;20072;-89
2022/05/27 05:12:40;;;;;;;12.43;2.80;;;;;;;;;;4966421;28;20070;-89
2022/05/27 05:15:06;;;;;;;31.90;3.17;;;;;;;;;;4965564;28;20561;-90
2022/05/27 05:17:32;;;;;;;15.13;3.17;;;;;;;;;;4971190;28;20628;-89
2022/05/27 05:19:58;;;;;;;20.98;3.22;;;;;;;;;;4962049;28;21952;-89
2022/05/27 05:22:24;;;;;;;11.82;2.13;;;;;;;;;;4969425;28;20030;-88
2022/05/27 05:24:53;;;;;;;29.85;3.35;;;;;;;;;;4978631;28;20098;-89
2022/05/27 05:27:20;;;;;;;18.73;2.75;;;;;;;;;;4981764;28;20538;-90
2022/05/27 05:29:46;;;;;;;17.33;2.70;;;;;;;;;;4962118;28;20391;-89
2022/05/27 05:32:12;;;;;;;13.57;2.17;;;;;;;;;;4964310;28;20678;-89
2022/05/27 05:34:38;;;;;;;22.17;3.00;;;;;;;;;;4978073;28;20038;-89
2022/05/27 05:37:05;;;;;;;20.15;3.70;;;;;;;;;;4965327;28;20049;-88
2022/05/27 05:39:31;;;;;;;19.73;3.55;;;;;;;;;;4966017;28;20034;-89
2022/05/27 05:41:59;;;;;;;20.38;2.78;;;;;;;;;;4968985;28;20081;-90
2022/05/27 05:44:30;;;;;;;21.00;2.85;;;;;;;;;;4980502;28;20122;-89
2022/05/27 05:46:56;;;;;;;9.25;2.90;;;;;;;;;;4973958;28;20027;-87
2022/05/27 05:49:22;;;;;;;18.05;2.95;;;;;;;;;;4968559;28;20127;-88
2022/05/27 05:51:49;;;;;;;18.83;3.45;;;;;;;;;;4979094;28;20467;-89
2022/05/27 05:54:15;;;;;;;12.13;2.20;;;;;;;;;;4971383;28;20034;-87
2022/05/27 05:56:41;;;;;;;10.88;2.67;;;;;;;;;;4959891;28;20102;-88
2022/05/27 05:59:07;;;;;;;11.38;2.75;;;;;;;;;;4979993;28;20117;-87
2022/05/27 06:01:33;;;;;;;18.42;2.65;;;;;;;;;;4966494;28;20038;-89
2022/05/27 06:03:59;;;;;;;12.02;3.53;;;;;;;;;;4975910;28;20022;-89
2022/05/27 06:06:25;;;;;;;20.02;2.95;;;;;;;;;;4967704;28;20481;-87
2022/05/27 06:08:51;;;;;;;22.20;2.92;;;;;;;;;;4963507;28;20022;-89
2022/05/27 06:11:17;;;;;;;21.42;3.63;;;;;;;;;;4961121;28;20041;-87
2022/05/27 06:13:43;;;;;;;19.63;2.70;;;;;;;;;;4961646;28;20034;-88
2022/05/27 06:16:09;;;;;;;17.75;3.50;;;;;;;;;;4960713;28;20272;-89
2022/05/27 06:18:36;;;;;;;21.38;3.22;;;;;;;;;;4962813;28;20054;-90
2022/05/27 06:21:03;;;;;;;13.85;2.47;;;;;;;;;;4951252;28;20042;-90
2022/05/27 06:23:29;;;;;;;17.63;3.90;;;;;;;;;;4961757;28;20030;-90
2022/05/27 06:26:04;;;;;;;22.48;3.42;;;;;;;;;;4965178;28;20376;-91
2022/05/27 06:36:44;;;;;;;14.45;2.92;;;;;;;;;;4960136;28;20058;-89
2022/05/27 06:39:11;;;;;;;10.00;2.22;;;;;;;;;;4947506;28;20026;-90
2022/05/27 06:41:37;;;;;;;9.65;2.53;;;;;;;;;;4957716;28;20479;-91
2022/05/27 06:44:04;;;;;;;10.90;2.42;;;;;;;;;;4950888;28;20553;-90
2022/05/27 06:46:31;;;;;;;15.02;2.25;;;;;;;;;;4958053;28;20791;-91
2022/05/27 06:48:57;;;;;;;14.75;3.40;;;;;;;;;;4958869;28;20134;-88
2022/05/27 06:51:23;;;;;;;15.48;3.15;;;;;;;;;;4963480;28;20490;-90
2022/05/27 06:53:49;;;;;;;16.90;3.33;;;;;;;;;;4952536;28;20042;-88
2022/05/27 06:56:16;;;;;;;17.63;2.67;;;;;;;;;;4970454;28;20528;-90
2022/05/27 06:58:42;;;;;;;15.07;2.63;;;;;;;;;;4970530;28;20542;-91
2022/05/27 07:01:12;;;;;;;14.93;3.13;;;;;;;;;;4968095;28;20035;-89
2022/05/27 07:03:38;;;;;;;7.47;2.35;;;;;;;;;;4954066;28;20368;-85
2022/05/27 07:06:05;;;;;;;12.30;2.10;;;;;;;;;;4947608;28;20596;-86
2022/05/27 07:08:31;;;;;;;18.92;3.05;;;;;;;;;;4947807;28;20022;-85
2022/05/27 07:10:58;;;;;;;8.80;2.05;;;;;;;;;;4962544;28;20035;-85
2022/05/27 07:13:24;;;;;;;12.48;2.17;;;;;;;;;;4962199;28;20038;-86
2022/05/27 07:15:50;;;;;;;6.57;1.95;;;;;;;;;;4945346;28;20058;-83
2022/05/27 07:18:17;;;;;;;17.80;2.47;;;;;;;;;;4984796;28;20517;-84
2022/05/27 07:20:50;;;;;;;8.68;2.38;;;;;;;;;;4986531;28;20562;-85
2022/05/27 07:23:23;;;;;;;18.83;3.15;;;;;;;;;;4970605;28;20521;-84
2022/05/27 07:25:49;;;;;;;16.48;2.88;;;;;;;;;;4980690;28;20023;-84
2022/05/27 07:28:15;;;;;;;25.92;2.75;;;;;;;;;;4962928;28;20026;-84
2022/05/27 07:30:41;;;;;;;19.25;3.20;;;;;;;;;;4969575;28;20116;-86
2022/05/27 07:33:07;;;;;;;11.13;2.75;;;;;;;;;;4966731;28;20401;-86
2022/05/27 07:35:33;;;;;;;21.38;2.30;;;;;;;;;;4965732;28;20031;-85
2022/05/27 07:37:59;;;;;;;18.83;3.08;;;;;;;;;;4969503;28;20096;-86
2022/05/27 07:40:26;;;;;;;15.85;2.90;;;;;;;;;;4963472;28;20109;-84
2022/05/27 07:42:52;;;;;;;15.20;2.97;;;;;;;;;;4963033;28;20037;-87
2022/05/27 07:45:18;;;;;;;15.63;3.33;;;;;;;;;;4965760;28;20022;-85
2022/05/27 07:47:44;;;;;;;22.73;3.28;;;;;;;;;;4961837;28;20413;-85
2022/05/27 07:50:13;;;;;;;17.60;3.25;;;;;;;;;;4979658;28;20048;-86
2022/05/27 07:52:40;;;;;;;19.38;2.80;;;;;;;;;;4979503;28;20026;-84
2022/05/27 07:55:06;;;;;;;18.38;2.63;;;;;;;;;;4965914;28;20043;-85
2022/05/27 07:57:32;;;;;;;12.82;2.83;;;;;;;;;;4964080;28;20070;-85
2022/05/27 08:00:04;;;;;;;11.63;2.33;;;;;;;;;;4964381;28;20068;-85
2022/05/27 08:02:31;;;;;;;15.75;3.08;;;;;;;;;;4978864;28;20031;-86
2022/05/27 08:04:57;;;;;;;7.32;2.58;;;;;;;;;;4968592;28;20022;-85
2022/05/27 08:07:24;;;;;;;10.52;2.75;;;;;;;;;;4962769;28;20031;-85
2022/05/27 08:09:50;;;;;;;23.20;5.78;;;;;;;;;;4976333;28;20088;-86
2022/05/27 08:12:17;;;;;;;8.27;2.53;;;;;;;;;;4981783;28;20129;-84
2022/05/27 08:14:43;;;;;;;26.00;2.70;;;;;;;;;;4966113;28;20116;-85
2022/05/27 08:17:09;;;;;;;13.32;2.55;;;;;;;;;;4967549;28;20414;-85
2022/05/27 08:19:36;;;;;;;7.95;2.08;;;;;;;;;;4949462;28;20039;-85
2022/05/27 08:22:02;;;;;;;13.32;2.33;;;;;;;;;;4945850;28;20022;-86
2022/05/27 08:24:29;;;;;;;16.98;2.28;;;;;;;;;;4947145;28;20029;-85
2022/05/27 08:26:55;;;;;;;10.82;2.67;;;;;;;;;;4946403;28;20030;-84
2022/05/27 08:29:21;;;;;;;12.10;2.20;;;;;;;;;;4946704;28;20034;-85
2022/05/27 08:31:47;;;;;;;5.75;1.67;;;;;;;;;;4960755;28;20026;-85
2022/05/27 08:39:47;;;;;;;22.23;3.00;;;;;;;;;;4964128;28;20556;-85
2022/05/27 08:42:25;;;;;;;6.97;2.08;;;;;;;;;;4942824;28;20418;-86
2022/05/27 08:44:55;;;;;;;12.48;3.13;;;;;;;;;;4943787;28;20435;-86
2022/05/27 08:47:21;;;;;;;13.40;3.08;;;;;;;;;;4948500;28;20022;-87
2022/05/27 08:49:53;;;;;;;10.40;2.65;;;;;;;;;;4945353;28;20058;-85
2022/05/27 08:52:26;;;;;;;16.65;2.60;;;;;;;;;;4944946;28;20483;-85
2022/05/27 08:54:57;;;;;;;9.15;2.17;;;;;;;;;;4948799;28;20482;-86
2022/05/27 09:00:14;;;;;;;13.45;2.58;;;;;;;;;;4964688;28;20105;-85
2022/05/27 09:02:40;;;;;;;11.82;2.58;;;;;;;;;;4945013;28;20503;-86
2022/05/27 09:05:14;;;;;;;11.43;2.15;;;;;;;;;;4948235;28;20506;-85
2022/05/27 09:07:41;;;;;;;20.02;3.50;;;;;;;;;;4948591;28;20050;-86
2022/05/27 09:10:12;;;;;;;21.02;3.35;;;;;;;;;;4950731;28;20133;-85
2022/05/27 09:12:38;;;;;;;14.80;2.65;;;;;;;;;;4947221;28;21073;-85
2022/05/27 09:15:14;;;;;;;21.27;2.40;;;;;;;;;;4945712;28;20133;-86
2022/05/27 09:18:02;;;;;;;15.98;3.08;;;;;;;;;;4957033;28;20189;-86
2022/05/27 09:20:37;;;;;;;9.88;2.47;;;;;;;;;;4961071;28;20474;-87
2022/05/27 09:23:28;;;;;;;13.05;3.55;;;;;;;;;;4963315;28;20026;-85
2022/05/27 09:26:12;;;;;;;11.48;2.20;;;;;;;;;;4973142;28;20171;-88
2022/05/27 09:28:45;;;;;;;10.38;3.17;;;;;;;;;;4989385;28;20485;-85
2022/05/27 09:31:13;;;;;;;14.30;2.63;;;;;;;;;;4979444;28;20216;-86
2022/05/27 09:33:39;;;;;;;11.07;3.13;;;;;;;;;;4986096;28;20472;-85
2022/05/27 09:36:09;;;;;;;15.88;2.95;;;;;;;;;;4964201;28;20458;-85
2022/05/27 09:38:38;;;;;;;15.20;2.65;;;;;;;;;;4965257;28;20088;-85
2022/05/27 09:41:24;;;;;;;17.05;3.53;;;;;;;;;;4967012;28;20050;-86
2022/05/27 09:43:54;;;;;;;21.23;2.90;;;;;;;;;;4970456;28;20355;-85
2022/05/27 09:46:31;;;;;;;11.55;2.92;;;;;;;;;;4967079;28;20512;-85
2022/05/27 09:48:58;;;;;;;14.40;2.53;;;;;;;;;;4970439;28;20109;-85
2022/05/27 09:51:24;;;;;;;15.65;2.55;;;;;;;;;;4970703;28;20047;-87
2022/05/27 09:53:52;;;;;;;15.55;2.50;;;;;;;;;;4969234;28;20031;-85
2022/05/27 09:56:32;;;;;;;11.73;2.72;;;;;;;;;;4970032;28;20049;-86
2022/05/27 09:59:05;;;;;;;9.82;2.08;;;;;;;;;;4968371;28;20069;-85
2022/05/27 10:01:32;;;;;;;14.43;2.78;;;;;;;;;;4966776;28;20036;-86
2022/05/27 10:04:12;;;;;;;9.73;2.53;;;;;;;;;;4964028;28;20073;-85
2022/05/27 10:06:38;;;;;;;13.68;2.58;;;;;;;;;;4968176;28;20057;-85
2022/05/27 10:09:05;;;;;;;11.05;1.88;;;;;;;;;;4963026;28;20482;-88
2022/05/27 10:11:51;;;;;;;11.38;3.22;;;;;;;;;;4983082;28;20026;-85
2022/05/27 10:14:17;;;;;;;11.32;2.92;;;;;;;;;;4973972;28;20027;-86
2022/05/27 10:16:44;;;;;;;17.50;3.17;;;;;;;;;;4964419;28;20042;-85
2022/05/27 10:19:13;;;;;;;15.00;2.85;;;;;;;;;;4968695;28;20304;-85
2022/05/27 10:21:53;;;;;;;12.15;2.90;;;;;;;;;;4968412;28;20406;-85
2022/05/27 10:24:31;;;;;;;6.72;2.28;;;;;;;;;;4947304;28;20042;-85
2022/05/27 10:27:05;;;;;;;7.07;2.45;;;;;;;;;;4946896;28;20046;-85
2022/05/27 10:29:32;;;;;;;14.20;2.63;;;;;;;;;;4962207;28;20030;-85
2022/05/27 10:31:59;;;;;;;13.48;2.83;;;;;;;;;;4942985;28;20031;-85
2022/05/27 10:34:31;;;;;;;12.00;2.88;;;;;;;;;;4953249;28;20022;-85
2022/05/27 10:37:03;;;;;;;15.45;3.22;;;;;;;;;;4961316;28;20031;-85
2022/05/27 10:39:35;;;;;;;9.40;2.08;;;;;;;;;;4962406;28;20031;-87
2022/05/27 10:42:14;;;;;;;13.38;3.03;;;;;;;;;;4960334;28;20038;-86
2022/05/27 10:44:40;;;;;;;16.52;3.38;;;;;;;;;;4944836;28;20031;-84
2022/05/27 10:47:09;;;;;;;9.00;3.20;;;;;;;;;;4967399;28;20030;-86
2022/05/27 10:49:45;;;;;;;11.63;3.55;;;;;;;;;;4949444;28;20851;-86
2022/05/27 10:52:29;;;;;;;12.50;2.85;;;;;;;;;;4945295;28;20482;-85
2022/05/27 10:55:13;;;;;;;12.85;3.15;;;;;;;;;;4949724;28;20609;-85
2022/05/27 11:03:20;;;;;;;22.95;4.43;;;;;;;;;;4958095;28;20410;-88
2022/05/27 11:06:05;;;;;;;17.05;4.68;;;;;;;;;;4959453;28;20019;-86
2022/05/27 11:08:41;;;;;;;10.70;2.75;;;;;;;;;;4959111;28;20050;-86
2022/05/27 11:11:10;;;;;;;9.63;3.15;;;;;;;;;;4956903;28;20046;-85
2022/05/27 11:16:57;;;;;;;14.50;2.65;;;;;;;;;;4962888;28;20453;-86
2022/05/27 11:19:49;;;;;;;13.15;2.25;;;;;;;;;;4955961;28;20411;-83
2022/05/27 11:22:27;;;;;;;13.80;2.70;;;;;;;;;;4961464;28;20035;-82
2022/05/27 11:25:02;;;;;;;18.65;4.00;;;;;;;;;;4950831;28;20030;-85
2022/05/27 11:27:40;;;;;;;18.73;3.43;;;;;;;;;;4965529;28;20034;-88
2022/05/27 11:30:12;;;;;;;15.52;3.38;;;;;;;;;;4944188;28;20124;-86
2022/05/27 11:32:50;;;;;;;25.02;3.65;;;;;;;;;;4959622;28;20066;-84
2022/05/27 11:35:32;;;;;;;16.98;4.65;;;;;;;;;;4960561;28;20109;-85
2022/05/27 11:38:01;;;;;;;18.23;3.33;;;;;;;;;;4943480;28;20109;-86
2022/05/27 11:40:59;;;;;;;12.18;3.30;;;;;;;;;;4952237;28;20050;-86
2022/05/27 11:43:41;;;;;;;8.05;2.55;;;;;;;;;;4895584;28;20038;-85
2022/05/27 11:46:26;;;;;;;12.73;4.13;;;;;;;;;;4962194;28;20035;-86
2022/05/27 11:48:52;;;;;;;15.55;2.85;;;;;;;;;;4955223;28;20026;-86
2022/05/27 11:51:24;;;;;;;23.75;3.85;;;;;;;;;;4964604;28;20034;-84
2022/05/27 11:54:02;;;;;;;24.30;3.90;;;;;;;;;;4957511;28;20437;-86
2022/05/27 11:56:43;;;;;;;12.70;2.88;;;;;;;;;;4964206;28;20510;-85
2022/05/27 11:59:13;;;;;;;21.00;4.18;;;;;;;;;;4964768;28;20026;-84
2022/05/27 12:01:39;;;;;;;13.52;2.83;;;;;;;;;;4946371;28;20027;-85
2022/05/27 12:04:29;;;;;;;12.18;3.25;;;;;;;;;;4947142;28;20034;-85
2022/05/27 12:06:58;;;;;;;15.82;2.90;;;;;;;;;;4946933;28;20375;-86
2022/05/27 12:09:31;;;;;;;15.07;2.33;;;;;;;;;;4947911;28;20038;-84
2022/05/27 12:12:00;;;;;;;19.80;2.45;;;;;;;;;;4941444;28;20589;-84
2022/05/27 12:14:29;;;;;;;11.25;2.63;;;;;;;;;;4957794;28;20038;-84
2022/05/27 12:16:57;;;;;;;8.95;2.25;;;;;;;;;;4959574;28;20035;-85
2022/05/27 12:19:27;;;;;;;17.77;3.05;;;;;;;;;;4980927;28;20125;-85
2022/05/27 12:22:05;;;;;;;12.55;2.90;;;;;;;;;;4953594;28;20072;-84
2022/05/27 12:24:51;;;;;;;12.95;2.58;;;;;;;;;;4977054;28;20123;-85
2022/05/27 12:27:19;;;;;;;10.70;2.45;;;;;;;;;;4963612;28;20031;-85
2022/05/27 12:29:49;;;;;;;20.88;4.07;;;;;;;;;;4960094;28;20066;-86
2022/05/27 12:32:16;;;;;;;14.80;2.92;;;;;;;;;;4962232;28;20030;-86
2022/05/27 12:34:44;;;;;;;14.35;3.30;;;;;;;;;;4982453;28;20023;-84
2022/05/27 12:37:13;;;;;;;12.88;2.50;;;;;;;;;;4961514;28;20034;-85
2022/05/27 12:39:41;;;;;;;15.70;3.40;;;;;;;;;;4962850;28;20148;-86
2022/05/27 12:42:28;;;;;;;16.25;2.90;;;;;;;;;;4978444;28;20030;-85
2022/05/27 12:44:54;;;;;;;27.98;3.65;;;;;;;;;;4963197;28;20565;-85
2022/05/27 12:47:31;;;;;;;13.75;3.75;;;;;;;;;;4960417;28;20039;-87
2022/05/27 12:50:05;;;;;;;12.75;2.45;;;;;;;;;;4976371;28;20038;-88
2022/05/27 12:52:32;;;;;;;9.43;2.03;;;;;;;;;;4963848;28;20085;-85
2022/05/27 12:55:01;;;;;;;13.13;2.83;;;;;;;;;;4962138;28;20125;-87
2022/05/27 13:03:31;;;;;;;8.95;1.67;;;;;;;;;;4979914;28;20126;-87
2022/05/27 13:06:07;;;;;;;10.73;3.67;;;;;;;;;;4965036;28;20022;-87
2022/05/27 13:08:33;;;;;;;;;;;;;;;;;;4967892;28;20410;-86
2022/05/27 13:11:05;;;;;;;17.20;2.88;;;;;;;;;;4981290;28;19917;-86
2022/05/27 13:13:33;;;;;;;20.45;3.60;;;;;;;;;;4972150;28;20038;-85
2022/05/27 13:16:23;;;;;;;13.00;3.03;;;;;;;;;;4961953;28;20034;-86
2022/05/27 13:18:51;;;;;;;7.20;2.70;;;;;;;;;;4982762;28;20065;-86
2022/05/27 13:21:41;;;;;;;5.63;1.92;;;;;;;;;;4976197;28;20530;-85
2022/05/27 13:24:13;;;;;;;16.33;2.90;;;;;;;;;;4954146;28;20058;-86
2022/05/27 13:26:39;;;;;;;18.83;2.40;;;;;;;;;;4960937;28;20042;-87
2022/05/27 13:29:28;;;;;;;13.27;2.83;;;;;;;;;;4960024;28;20188;-86
2022/05/27 13:32:03;;;;;;;10.93;2.70;;;;;;;;;;4957642;28;20482;-88
2022/05/27 13:34:37;;;;;;;9.98;2.72;;;;;;;;;;4964606;28;20030;-85
2022/05/27 13:37:06;;;;;;;14.30;3.45;;;;;;;;;;4970865;28;20439;-86
2022/05/27 13:39:40;;;;;;;24.25;2.95;;;;;;;;;;4979863;28;20049;-87
2022/05/27 13:42:10;;;;;;;12.20;2.42;;;;;;;;;;4962429;28;20042;-86
2022/05/27 13:44:37;;;;;;;13.20;2.30;;;;;;;;;;4973051;28;20552;-86
2022/05/27 13:47:04;;;;;;;7.47;1.92;;;;;;;;;;4974852;28;20026;-86
2022/05/27 13:49:33;;;;;;;15.68;2.88;;;;;;;;;;4977808;28;20124;-86
2022/05/27 13:52:01;;;;;;;8.45;2.22;;;;;;;;;;4981003;28;20598;-86
2022/05/27 13:54:35;;;;;;;16.17;3.55;;;;;;;;;;4980097;28;20072;-86
2022/05/27 13:57:06;;;;;;;15.38;2.90;;;;;;;;;;4979781;28;20034;-86
2022/05/27 13:59:42;;;;;;;13.57;2.72;;;;;;;;;;4964651;28;20046;-86
2022/05/27 14:02:19;;;;;;;7.75;1.77;;;;;;;;;;4969264;28;20572;-85
2022/05/27 14:04:46;;;;;;;6.38;1.98;;;;;;;;;;4981450;28;20034;-85
2022/05/27 14:07:27;;;;;;;20.45;3.20;;;;;;;;;;4966966;28;20030;-85
2022/05/27 14:09:57;;;;;;;6.40;1.83;;;;;;;;;;4978945;28;20197;-85
2022/05/27 14:12:23;;;;;;;6.95;2.00;;;;;;;;;;4967961;28;20039;-86
2022/05/27 14:14:53;;;;;;;18.60;4.03;;;;;;;;;;4966744;28;20047;-85
2022/05/27 14:17:20;;;;;;;15.35;2.78;;;;;;;;;;4970237;28;20057;-84
2022/05/27 14:19:46;;;;;;;13.32;2.35;;;;;;;;;;4963991;28;20055;-85
2022/05/27 14:25:01;;;;;;;13.38;3.10;;;;;;;;;;4990833;28;20076;-86
2022/05/27 14:27:27;;;;;;;11.50;3.58;;;;;;;;;;4980491;28;20041;-87
2022/05/27 14:29:57;;;;;;;9.07;2.22;;;;;;;;;;4962274;28;20369;-85
2022/05/27 14:32:24;;;;;;;8.93;2.22;;;;;;;;;;4988274;28;20042;-85
2022/05/27 14:34:52;;;;;;;14.60;3.63;;;;;;;;;;4969961;28;20342;-85
2022/05/27 14:37:30;;;;;;;16.25;2.40;;;;;;;;;;4966034;28;20101;-85
2022/05/27 14:40:00;;;;;;;8.27;1.90;;;;;;;;;;4968142;28;20023;-85
2022/05/27 14:42:27;;;;;;;9.65;1.85;;;;;;;;;;4961893;28;20109;-85
2022/05/27 14:44:53;;;;;;;15.30;2.20;;;;;;;;;;4956799;28;20035;-85
2022/05/27 14:47:27;;;;;;;10.48;2.30;;;;;;;;;;4966977;28;20461;-86
2022/05/27 14:49:55;;;;;;;12.90;2.75;;;;;;;;;;4965941;28;20489;-86
2022/05/27 14:52:32;;;;;;;37.20;14.77;;;;;;;;;;4973518;28;20046;-85
2022/05/27 14:55:05;;;;;;;13.95;3.60;;;;;;;;;;4960177;28;20271;-86
2022/05/27 14:57:34;;;;;;;10.73;1.70;;;;;;;;;;4982500;28;20559;-85
2022/05/27 15:00:14;;;;;;;8.88;1.95;;;;;;;;;;4967043;28;20045;-85
2022/05/27 15:02:49;;;;;;;14.82;3.38;;;;;;;;;;4967337;28;20070;-86
2022/05/27 15:05:28;;;;;;;10.02;2.15;;;;;;;;;;4982107;28;20035;-85
2022/05/27 15:07:55;;;;;;;7.00;2.03;;;;;;;;;;4962542;28;20088;-86
2022/05/27 15:10:31;;;;;;;9.65;2.42;;;;;;;;;;4967210;28;20031;-86
2022/05/27 15:12:58;;;;;;;11.85;2.17;;;;;;;;;;4969268;28;20043;-85
2022/05/27 15:15:28;;;;;;;12.68;2.60;;;;;;;;;;4958374;28;20620;-86
2022/05/27 15:18:01;;;;;;;12.45;2.00;;;;;;;;;;4983503;28;20034;-86
2022/05/27 15:20:27;;;;;;;6.53;1.85;;;;;;;;;;4948248;28;20039;-86
2022/05/27 15:22:55;;;;;;;14.20;1.55;;;;;;;;;;4948203;28;20067;-86
2022/05/27 15:25:24;;;;;;;14.25;2.95;;;;;;;;;;4963852;28;20031;-86